createdAt,value
2022-09-14T00:00:18.768Z,16.21
2022-09-14T00:05:13.490Z,16.20
2022-09-14T00:10:07.690Z,16.19
2022-09-14T00:15:01.131Z,15.99
2022-09-14T00:19:54.269Z,16.12
2022-09-14T00:24:48.811Z,15.31
2022-09-14T00:29:41.976Z,16.12
2022-09-14T00:34:35.927Z,16.30
2022-09-14T00:39:29.305Z,15.92
2022-09-14T00:45:02.404Z,16.35
2022-09-14T00:49:55.825Z,15.79
2022-09-14T00:54:50.897Z,16.32
2022-09-14T00:59:45.351Z,16.32
2022-09-14T01:04:39.975Z,15.86
2022-09-14T01:09:38.286Z,16.26
2022-09-14T01:14:44.063Z,16.21
2022-09-14T01:20:04.179Z,15.47
2022-09-14T01:25:12.962Z,15.56
2022-09-14T01:30:13.797Z,15.85
2022-09-14T01:35:16.148Z,15.75
2022-09-14T01:40:16.601Z,15.25
2022-09-14T01:45:16.749Z,15.14
2022-09-14T01:50:13.577Z,15.75
2022-09-14T01:55:11.614Z,15.80
2022-09-14T02:00:08.797Z,15.26
2022-09-14T02:05:09.334Z,15.32
2022-09-14T02:10:04.525Z,15.65
2022-09-14T02:14:57.754Z,15.42
2022-09-14T02:19:55.964Z,15.10
2022-09-14T02:24:51.716Z,15.83
2022-09-14T02:29:45.309Z,15.48
2022-09-14T02:34:47.430Z,15.88
2022-09-14T02:39:48.209Z,15.85
2022-09-14T02:44:50.158Z,15.84
2022-09-14T02:49:49.925Z,15.49
2022-09-14T02:54:47.664Z,15.48
2022-09-14T02:59:42.211Z,15.46
2022-09-14T03:04:35.327Z,15.34
2022-09-14T03:09:28.537Z,14.80
2022-09-14T03:14:21.703Z,15.29
2022-09-14T03:19:16.515Z,15.29
2022-09-14T03:24:09.804Z,14.99
2022-09-14T03:29:02.953Z,15.37
2022-09-14T03:33:57.064Z,15.13
2022-09-14T03:38:53.146Z,15.27
2022-09-14T03:43:47.145Z,15.04
2022-09-14T03:48:40.918Z,15.06
2022-09-14T03:53:34.763Z,15.27
2022-09-14T03:58:33.982Z,15.22
2022-09-14T04:03:27.306Z,15.21
2022-09-14T04:08:22.870Z,15.29
2022-09-14T04:13:16.195Z,15.26
2022-09-14T04:18:16.389Z,15.31
2022-09-14T04:23:12.558Z,14.90
2022-09-14T04:28:22.394Z,14.92
2022-09-14T04:33:17.101Z,15.70
2022-09-14T04:38:10.245Z,15.72
2022-09-14T04:43:03.373Z,15.75
2022-09-14T04:47:56.494Z,15.51
2022-09-14T04:52:51.000Z,15.77
2022-09-14T04:57:44.216Z,15.84
2022-09-14T05:02:41.894Z,15.75
2022-09-14T05:07:35.105Z,15.32
2022-09-14T05:12:31.269Z,16.38
2022-09-14T05:17:24.416Z,16.52
2022-09-14T05:22:17.555Z,16.63
2022-09-14T05:27:13.802Z,16.75
2022-09-14T05:32:17.448Z,16.51
2022-09-14T05:37:13.096Z,16.88
2022-09-14T05:42:06.447Z,16.80
2022-09-14T05:46:59.647Z,17.23
2022-09-14T05:51:54.298Z,17.66
2022-09-14T05:56:47.342Z,17.54
2022-09-14T06:01:40.714Z,17.98
2022-09-14T06:06:35.124Z,18.15
2022-09-14T06:11:32.815Z,18.27
2022-09-14T06:16:28.008Z,17.59
2022-09-14T06:21:22.374Z,18.45
2022-09-14T06:26:16.146Z,18.83
2022-09-14T06:31:13.541Z,18.87
2022-09-14T06:36:11.541Z,18.48
2022-09-14T06:41:06.512Z,18.60
2022-09-14T06:46:03.868Z,19.47
2022-09-14T06:50:58.935Z,19.67
2022-09-14T06:55:52.887Z,19.84
2022-09-14T07:00:46.096Z,19.65
2022-09-14T07:05:39.262Z,20.12
2022-09-14T07:10:36.105Z,20.41
2022-09-14T07:15:34.729Z,20.60
2022-09-14T07:20:28.027Z,19.99
2022-09-14T07:25:21.255Z,20.69
2022-09-14T07:30:17.330Z,21.03
2022-09-14T07:35:11.038Z,21.24
2022-09-14T07:40:04.298Z,21.43
2022-09-14T07:44:58.276Z,21.74
2022-09-14T07:49:55.487Z,21.59
2022-09-14T07:54:48.733Z,21.15
2022-09-14T07:59:41.989Z,21.94
2022-09-14T08:04:37.824Z,22.13
2022-09-14T08:09:32.504Z,22.19
2022-09-14T08:14:26.415Z,22.45
2022-09-14T08:19:20.484Z,22.85
2022-09-14T08:24:16.100Z,22.70
2022-09-14T08:29:14.702Z,22.96
2022-09-14T08:34:11.467Z,24.07
2022-09-14T08:39:04.948Z,25.23
2022-09-14T08:44:03.291Z,26.45
2022-09-14T08:48:58.341Z,27.22
2022-09-14T08:53:53.606Z,28.19
2022-09-14T08:59:09.039Z,27.93
2022-09-14T09:04:24.661Z,27.70
2022-09-14T09:09:29.319Z,26.96
2022-09-14T09:14:39.571Z,27.36
2022-09-14T09:19:39.072Z,26.59
2022-09-14T09:24:38.329Z,26.40
2022-09-14T09:29:31.635Z,26.76
2022-09-14T09:34:44.195Z,25.83
2022-09-14T09:40:01.690Z,25.84
2022-09-14T09:45:01.774Z,26.43
2022-09-14T09:50:02.211Z,25.73
2022-09-14T09:54:57.878Z,25.71
2022-09-14T09:59:53.964Z,25.95
2022-09-14T10:05:00.576Z,26.50
2022-09-14T10:10:01.904Z,26.63
2022-09-14T10:15:14.499Z,26.61
2022-09-14T10:20:23.597Z,26.69
2022-09-14T10:25:29.439Z,27.16
2022-09-14T10:30:27.310Z,27.04
2022-09-14T10:35:33.778Z,26.72
2022-09-14T10:40:37.286Z,27.51
2022-09-14T10:45:36.352Z,27.21
2022-09-14T10:50:42.328Z,27.51
2022-09-14T10:55:46.053Z,27.28
2022-09-14T11:00:49.774Z,28.07
2022-09-14T11:05:52.081Z,28.39
2022-09-14T11:11:00.877Z,28.98
2022-09-14T11:16:03.143Z,29.68
2022-09-14T11:21:09.059Z,30.30
2022-09-14T11:26:10.522Z,31.59
2022-09-14T11:31:08.744Z,32.55
2022-09-14T11:36:10.447Z,33.33
2022-09-14T11:41:14.613Z,34.16
2022-09-14T11:46:11.705Z,35.02
2022-09-14T11:51:11.065Z,35.25
2022-09-14T11:56:16.926Z,35.69
2022-09-14T12:01:29.370Z,36.12
2022-09-14T12:06:54.197Z,36.99
2022-09-14T12:11:49.512Z,37.14
2022-09-14T12:17:28.641Z,37.46
2022-09-14T12:22:33.034Z,37.75
2022-09-14T12:27:27.676Z,37.64
2022-09-14T12:32:42.272Z,37.99
2022-09-14T12:37:43.467Z,37.50
2022-09-14T12:42:36.763Z,38.56
2022-09-14T12:47:59.743Z,38.11
2022-09-14T12:53:20.744Z,38.92
2022-09-14T12:58:34.162Z,38.77
2022-09-14T13:03:51.671Z,38.64
2022-09-14T13:08:54.340Z,38.69
2022-09-14T13:13:51.751Z,38.62
2022-09-14T13:18:44.917Z,38.83
2022-09-14T13:23:40.555Z,38.92
2022-09-14T13:28:35.556Z,39.09
2022-09-14T13:33:34.932Z,38.55
2022-09-14T13:38:31.305Z,38.92
2022-09-14T13:43:26.490Z,39.37
2022-09-14T13:48:24.271Z,39.15
2022-09-14T13:53:45.706Z,39.94
2022-09-14T13:58:38.854Z,39.74
2022-09-14T14:03:38.789Z,39.51
2022-09-14T14:08:36.648Z,39.22
2022-09-14T14:13:32.823Z,39.64
2022-09-14T14:18:41.680Z,38.99
2022-09-14T14:23:35.167Z,38.83
2022-09-14T14:28:32.251Z,38.61
2022-09-14T14:33:25.794Z,38.44
2022-09-14T14:38:20.291Z,38.22
2022-09-14T14:43:19.186Z,37.43
2022-09-14T14:48:13.200Z,37.65
2022-09-14T14:53:14.001Z,37.44
2022-09-14T14:58:21.433Z,37.23
2022-09-14T15:03:17.372Z,36.25
2022-09-14T15:08:11.754Z,35.21
2022-09-14T15:13:12.945Z,33.92
2022-09-14T15:18:07.607Z,31.97
2022-09-14T15:23:01.044Z,31.20
2022-09-14T15:27:54.294Z,30.27
2022-09-14T15:32:47.672Z,29.60
2022-09-14T15:37:51.151Z,28.55
2022-09-14T15:42:49.240Z,28.35
2022-09-14T15:47:43.928Z,28.04
2022-09-14T15:52:45.321Z,27.68
2022-09-14T15:57:40.659Z,26.79
2022-09-14T16:02:34.995Z,26.45
2022-09-14T16:07:30.471Z,27.16
2022-09-14T16:12:23.645Z,27.02
2022-09-14T16:17:18.771Z,26.61
2022-09-14T16:22:12.047Z,26.14
2022-09-14T16:27:21.650Z,26.40
2022-09-14T16:32:30.443Z,25.58
2022-09-14T16:43:01.988Z,25.00
2022-09-14T16:48:10.464Z,25.38
2022-09-14T16:53:09.232Z,25.71
2022-09-14T16:58:06.587Z,25.53
2022-09-14T17:03:01.154Z,24.95
2022-09-14T17:07:57.214Z,25.73
2022-09-14T17:12:50.549Z,25.37
2022-09-14T17:18:01.337Z,25.34
2022-09-14T17:22:58.691Z,25.75
2022-09-14T17:27:52.029Z,25.16
2022-09-14T17:32:45.287Z,24.81
2022-09-14T17:37:41.619Z,24.77
2022-09-14T17:42:49.327Z,24.71
2022-09-14T17:47:44.639Z,25.05
2022-09-14T17:52:37.998Z,24.80
2022-09-14T17:57:34.247Z,25.59
2022-09-14T18:02:32.101Z,25.19
2022-09-14T18:07:25.437Z,25.37
2022-09-14T18:12:21.559Z,25.36
2022-09-14T18:17:14.964Z,25.30
2022-09-14T18:22:10.889Z,24.58
2022-09-14T18:27:04.326Z,25.25
2022-09-14T18:31:59.514Z,24.98
2022-09-14T18:36:52.956Z,25.06
2022-09-14T18:41:53.876Z,25.06
2022-09-14T18:46:47.931Z,24.74
2022-09-14T18:51:46.877Z,24.81
2022-09-14T18:56:41.219Z,24.36
2022-09-14T19:01:37.158Z,24.41
2022-09-14T19:06:34.057Z,24.27
2022-09-14T19:11:32.005Z,24.73
2022-09-14T19:16:25.675Z,24.64
2022-09-14T19:21:23.811Z,24.54
2022-09-14T19:26:21.186Z,24.37
2022-09-14T19:31:20.885Z,24.08
2022-09-14T19:36:16.298Z,23.78
2022-09-14T19:41:11.049Z,23.17
2022-09-14T19:46:06.262Z,22.83
2022-09-14T19:51:04.799Z,22.62
2022-09-14T19:55:58.393Z,22.88
2022-09-14T20:00:55.799Z,22.80
2022-09-14T20:05:48.967Z,22.61
2022-09-14T20:10:42.236Z,22.71
2022-09-14T20:15:38.517Z,22.70
2022-09-14T20:20:33.131Z,22.91
2022-09-14T20:25:32.773Z,22.74
2022-09-14T20:30:37.221Z,22.36
2022-09-14T20:35:34.029Z,23.27
2022-09-14T20:40:27.272Z,23.34
2022-09-14T20:45:23.524Z,23.29
2022-09-14T20:50:16.826Z,23.44
2022-09-14T20:55:11.714Z,23.41
2022-09-14T21:00:05.497Z,23.43
2022-09-14T21:05:00.117Z,22.98
2022-09-14T21:09:53.369Z,23.45
2022-09-14T21:14:48.177Z,22.91
2022-09-14T21:19:44.348Z,23.22
2022-09-14T21:24:37.545Z,22.70
2022-09-14T21:29:33.171Z,23.41
2022-09-14T21:34:27.626Z,23.60
2022-09-14T21:39:26.024Z,23.73
2022-09-14T21:44:46.621Z,23.07
2022-09-14T21:49:41.130Z,23.86
2022-09-14T21:54:41.871Z,23.89
2022-09-14T21:59:40.529Z,23.70
2022-09-14T22:04:33.664Z,23.10
2022-09-14T22:09:29.708Z,23.73
2022-09-14T22:14:26.446Z,23.74
2022-09-14T22:19:21.426Z,23.54
2022-09-14T22:24:17.454Z,23.09
2022-09-14T22:29:12.991Z,22.94
2022-09-14T22:34:06.436Z,22.27
2022-09-14T22:39:01.323Z,22.00
2022-09-14T22:43:55.244Z,22.07
2022-09-14T22:48:50.607Z,21.69
2022-09-14T22:53:44.305Z,21.62
2022-09-14T22:58:38.062Z,21.37
2022-09-14T23:03:31.123Z,21.22
2022-09-14T23:08:25.633Z,20.93
2022-09-14T23:13:21.748Z,20.73
2022-09-14T23:18:15.243Z,20.73
2022-09-14T23:23:09.017Z,20.60
2022-09-14T23:28:04.063Z,20.37
2022-09-14T23:32:57.191Z,20.49
2022-09-14T23:37:50.357Z,20.58
2022-09-14T23:42:43.433Z,20.81
2022-09-14T23:47:37.935Z,20.86
2022-09-14T23:52:31.272Z,21.00
2022-09-14T23:57:24.439Z,21.05
